sensor_id;sensor_type;location;lat;lon;timestamp;P1;durP1;ratioP1;P2;durP2;ratioP2
13485;SDS011;6815;59.336;17.998;2023-06-01T00:00:41;2.25;;;0.90;;
13485;SDS011;6815;59.336;17.998;2023-06-01T00:03:06;2.10;;;1.00;;
13485;SDS011;6815;59.336;17.998;2023-06-01T00:05:31;2.40;;;1.00;;
13485;SDS011;6815;59.336;17.998;2023-06-01T00:07:57;3.43;;;0.90;;
13485;SDS011;6815;59.336;17.998;2023-06-01T00:10:22;1.75;;;0.85;;
13485;SDS011;6815;59.336;17.998;2023-06-01T00:12:48;4.13;;;0.90;;
13485;SDS011;6815;59.336;17.998;2023-06-01T00:15:13;6.10;;;1.15;;
13485;SDS011;6815;59.336;17.998;2023-06-01T00:17:39;6.30;;;1.08;;
13485;SDS011;6815;59.336;17.998;2023-06-01T00:20:04;5.37;;;1.07;;
13485;SDS011;6815;59.336;17.998;2023-06-01T00:22:36;2.20;;;0.90;;
13485;SDS011;6815;59.336;17.998;2023-06-01T00:25:08;2.60;;;0.83;;
13485;SDS011;6815;59.336;17.998;2023-06-01T00:27:33;2.23;;;0.90;;
13485;SDS011;6815;59.336;17.998;2023-06-01T00:29:59;1.90;;;0.90;;
13485;SDS011;6815;59.336;17.998;2023-06-01T00:32:24;2.47;;;0.83;;
13485;SDS011;6815;59.336;17.998;2023-06-01T00:34:50;4.83;;;1.10;;
13485;SDS011;6815;59.336;17.998;2023-06-01T00:37:16;2.45;;;1.10;;
13485;SDS011;6815;59.336;17.998;2023-06-01T00:39:41;2.13;;;0.80;;
13485;SDS011;6815;59.336;17.998;2023-06-01T00:42:07;5.50;;;1.03;;
13485;SDS011;6815;59.336;17.998;2023-06-01T00:44:32;1.87;;;1.07;;
13485;SDS011;6815;59.336;17.998;2023-06-01T00:46:58;4.13;;;1.13;;
13485;SDS011;6815;59.336;17.998;2023-06-01T00:49:24;4.00;;;1.30;;
13485;SDS011;6815;59.336;17.998;2023-06-01T00:51:51;2.47;;;1.13;;
13485;SDS011;6815;59.336;17.998;2023-06-01T00:54:17;1.67;;;0.70;;
13485;SDS011;6815;59.336;17.998;2023-06-01T00:56:43;3.30;;;0.90;;
13485;SDS011;6815;59.336;17.998;2023-06-01T00:59:09;1.00;;;0.80;;
13485;SDS011;6815;59.336;17.998;2023-06-01T01:01:35;3.27;;;1.30;;
13485;SDS011;6815;59.336;17.998;2023-06-01T01:04:01;1.43;;;1.00;;
13485;SDS011;6815;59.336;17.998;2023-06-01T01:06:29;5.30;;;1.17;;
13485;SDS011;6815;59.336;17.998;2023-06-01T01:12:00;1.83;;;1.07;;
13485;SDS011;6815;59.336;17.998;2023-06-01T01:14:41;1.70;;;0.80;;
13485;SDS011;6815;59.336;17.998;2023-06-01T01:17:18;1.17;;;0.80;;
13485;SDS011;6815;59.336;17.998;2023-06-01T01:28:47;2.83;;;1.00;;
13485;SDS011;6815;59.336;17.998;2023-06-01T01:31:18;1.40;;;0.67;;
13485;SDS011;6815;59.336;17.998;2023-06-01T01:33:48;2.13;;;1.00;;
13485;SDS011;6815;59.336;17.998;2023-06-01T01:36:16;2.40;;;0.90;;
13485;SDS011;6815;59.336;17.998;2023-06-01T01:38:42;3.50;;;0.80;;
13485;SDS011;6815;59.336;17.998;2023-06-01T01:41:07;2.60;;;1.03;;
13485;SDS011;6815;59.336;17.998;2023-06-01T01:43:33;1.00;;;0.70;;
13485;SDS011;6815;59.336;17.998;2023-06-01T01:46:03;1.27;;;0.80;;
13485;SDS011;6815;59.336;17.998;2023-06-01T01:51:50;2.43;;;0.70;;
13485;SDS011;6815;59.336;17.998;2023-06-01T01:54:21;1.23;;;0.57;;
13485;SDS011;6815;59.336;17.998;2023-06-01T01:56:47;2.77;;;0.80;;
13485;SDS011;6815;59.336;17.998;2023-06-01T01:59:15;0.87;;;0.73;;
13485;SDS011;6815;59.336;17.998;2023-06-01T02:01:42;1.50;;;0.80;;
13485;SDS011;6815;59.336;17.998;2023-06-01T02:04:09;3.43;;;0.77;;
13485;SDS011;6815;59.336;17.998;2023-06-01T02:06:35;1.47;;;0.80;;
13485;SDS011;6815;59.336;17.998;2023-06-01T02:09:01;2.40;;;0.70;;
13485;SDS011;6815;59.336;17.998;2023-06-01T02:11:31;2.00;;;0.77;;
13485;SDS011;6815;59.336;17.998;2023-06-01T02:13:57;1.63;;;0.70;;
13485;SDS011;6815;59.336;17.998;2023-06-01T02:16:22;4.33;;;0.97;;
13485;SDS011;6815;59.336;17.998;2023-06-01T02:18:48;1.37;;;0.80;;
13485;SDS011;6815;59.336;17.998;2023-06-01T02:21:13;3.90;;;0.77;;
13485;SDS011;6815;59.336;17.998;2023-06-01T02:23:39;1.17;;;0.60;;
13485;SDS011;6815;59.336;17.998;2023-06-01T02:26:06;6.63;;;0.73;;
13485;SDS011;6815;59.336;17.998;2023-06-01T02:28:33;2.03;;;0.70;;
13485;SDS011;6815;59.336;17.998;2023-06-01T02:30:58;2.13;;;0.60;;
13485;SDS011;6815;59.336;17.998;2023-06-01T02:33:23;0.90;;;0.47;;
13485;SDS011;6815;59.336;17.998;2023-06-01T02:35:50;1.70;;;0.70;;
13485;SDS011;6815;59.336;17.998;2023-06-01T02:38:16;1.83;;;0.80;;
13485;SDS011;6815;59.336;17.998;2023-06-01T02:40:41;0.67;;;0.43;;
13485;SDS011;6815;59.336;17.998;2023-06-01T02:43:07;0.77;;;0.40;;
13485;SDS011;6815;59.336;17.998;2023-06-01T02:45:32;2.07;;;0.57;;
13485;SDS011;6815;59.336;17.998;2023-06-01T02:47:58;1.50;;;0.50;;
13485;SDS011;6815;59.336;17.998;2023-06-01T02:50:23;0.67;;;0.60;;
13485;SDS011;6815;59.336;17.998;2023-06-01T02:52:49;0.50;;;0.50;;
13485;SDS011;6815;59.336;17.998;2023-06-01T02:55:14;0.77;;;0.60;;
13485;SDS011;6815;59.336;17.998;2023-06-01T02:57:39;2.20;;;0.60;;
13485;SDS011;6815;59.336;17.998;2023-06-01T03:00:05;2.13;;;0.60;;
13485;SDS011;6815;59.336;17.998;2023-06-01T03:02:40;1.00;;;0.50;;
13485;SDS011;6815;59.336;17.998;2023-06-01T03:05:10;1.83;;;0.50;;
13485;SDS011;6815;59.336;17.998;2023-06-01T03:07:39;0.60;;;0.50;;
13485;SDS011;6815;59.336;17.998;2023-06-01T03:10:13;0.60;;;0.40;;
13485;SDS011;6815;59.336;17.998;2023-06-01T03:12:39;1.93;;;0.40;;
13485;SDS011;6815;59.336;17.998;2023-06-01T03:15:04;1.23;;;0.40;;
13485;SDS011;6815;59.336;17.998;2023-06-01T03:17:31;1.63;;;0.40;;
13485;SDS011;6815;59.336;17.998;2023-06-01T03:19:57;1.90;;;0.53;;
13485;SDS011;6815;59.336;17.998;2023-06-01T03:22:23;1.67;;;0.60;;
13485;SDS011;6815;59.336;17.998;2023-06-01T03:24:48;1.43;;;0.60;;
13485;SDS011;6815;59.336;17.998;2023-06-01T03:27:17;4.73;;;0.60;;
13485;SDS011;6815;59.336;17.998;2023-06-01T03:29:43;2.67;;;0.40;;
13485;SDS011;6815;59.336;17.998;2023-06-01T03:32:08;0.40;;;0.40;;
13485;SDS011;6815;59.336;17.998;2023-06-01T03:34:34;1.87;;;0.40;;
13485;SDS011;6815;59.336;17.998;2023-06-01T03:37:01;1.80;;;0.50;;
13485;SDS011;6815;59.336;17.998;2023-06-01T03:39:30;2.80;;;0.77;;
13485;SDS011;6815;59.336;17.998;2023-06-01T03:41:59;1.03;;;0.50;;
13485;SDS011;6815;59.336;17.998;2023-06-01T03:44:24;1.07;;;0.60;;
13485;SDS011;6815;59.336;17.998;2023-06-01T03:46:50;1.43;;;0.50;;
13485;SDS011;6815;59.336;17.998;2023-06-01T03:49:16;1.20;;;0.70;;
13485;SDS011;6815;59.336;17.998;2023-06-01T03:51:41;4.03;;;0.80;;
13485;SDS011;6815;59.336;17.998;2023-06-01T03:54:07;3.57;;;0.80;;
13485;SDS011;6815;59.336;17.998;2023-06-01T03:56:32;2.97;;;0.60;;
13485;SDS011;6815;59.336;17.998;2023-06-01T03:58:58;2.33;;;0.53;;
13485;SDS011;6815;59.336;17.998;2023-06-01T04:01:24;1.00;;;0.70;;
13485;SDS011;6815;59.336;17.998;2023-06-01T04:03:51;2.70;;;0.87;;
13485;SDS011;6815;59.336;17.998;2023-06-01T04:06:18;1.20;;;0.67;;
13485;SDS011;6815;59.336;17.998;2023-06-01T04:08:44;4.67;;;0.60;;
13485;SDS011;6815;59.336;17.998;2023-06-01T04:11:20;1.17;;;0.70;;
13485;SDS011;6815;59.336;17.998;2023-06-01T04:13:47;1.77;;;0.70;;
13485;SDS011;6815;59.336;17.998;2023-06-01T04:16:13;0.83;;;0.70;;
13485;SDS011;6815;59.336;17.998;2023-06-01T04:18:38;2.93;;;0.70;;
13485;SDS011;6815;59.336;17.998;2023-06-01T04:21:04;1.67;;;0.80;;
13485;SDS011;6815;59.336;17.998;2023-06-01T04:23:31;1.40;;;0.90;;
13485;SDS011;6815;59.336;17.998;2023-06-01T04:25:57;0.67;;;0.60;;
13485;SDS011;6815;59.336;17.998;2023-06-01T04:28:24;2.73;;;0.93;;
13485;SDS011;6815;59.336;17.998;2023-06-01T04:30:53;1.47;;;0.93;;
13485;SDS011;6815;59.336;17.998;2023-06-01T04:33:19;2.60;;;0.70;;
13485;SDS011;6815;59.336;17.998;2023-06-01T04:35:47;3.10;;;0.63;;
13485;SDS011;6815;59.336;17.998;2023-06-01T04:38:12;1.90;;;0.80;;
13485;SDS011;6815;59.336;17.998;2023-06-01T04:40:38;1.23;;;0.70;;
13485;SDS011;6815;59.336;17.998;2023-06-01T04:43:05;2.93;;;0.80;;
13485;SDS011;6815;59.336;17.998;2023-06-01T04:45:33;1.23;;;0.80;;
13485;SDS011;6815;59.336;17.998;2023-06-01T04:47:59;0.67;;;0.60;;
13485;SDS011;6815;59.336;17.998;2023-06-01T04:50:24;1.83;;;0.90;;
13485;SDS011;6815;59.336;17.998;2023-06-01T04:52:54;2.77;;;1.03;;
13485;SDS011;6815;59.336;17.998;2023-06-01T04:55:20;3.23;;;0.73;;
13485;SDS011;6815;59.336;17.998;2023-06-01T04:57:45;1.40;;;0.77;;
13485;SDS011;6815;59.336;17.998;2023-06-01T05:00:14;1.97;;;0.80;;
13485;SDS011;6815;59.336;17.998;2023-06-01T05:02:43;3.40;;;1.03;;
13485;SDS011;6815;59.336;17.998;2023-06-01T05:05:09;4.03;;;0.90;;
13485;SDS011;6815;59.336;17.998;2023-06-01T05:07:36;3.47;;;1.37;;
13485;SDS011;6815;59.336;17.998;2023-06-01T05:10:02;3.53;;;0.90;;
13485;SDS011;6815;59.336;17.998;2023-06-01T05:12:31;1.53;;;0.93;;
13485;SDS011;6815;59.336;17.998;2023-06-01T05:15:00;3.83;;;0.80;;
13485;SDS011;6815;59.336;17.998;2023-06-01T05:17:26;1.90;;;0.90;;
13485;SDS011;6815;59.336;17.998;2023-06-01T05:19:52;1.77;;;0.90;;
13485;SDS011;6815;59.336;17.998;2023-06-01T05:22:17;1.10;;;0.80;;
13485;SDS011;6815;59.336;17.998;2023-06-01T05:24:43;2.50;;;0.90;;
13485;SDS011;6815;59.336;17.998;2023-06-01T05:27:10;1.40;;;0.80;;
13485;SDS011;6815;59.336;17.998;2023-06-01T05:29:35;1.97;;;0.83;;
13485;SDS011;6815;59.336;17.998;2023-06-01T05:32:00;1.47;;;0.80;;
13485;SDS011;6815;59.336;17.998;2023-06-01T05:34:26;2.57;;;0.90;;
13485;SDS011;6815;59.336;17.998;2023-06-01T05:36:51;3.93;;;1.07;;
13485;SDS011;6815;59.336;17.998;2023-06-01T05:39:17;2.33;;;0.90;;
13485;SDS011;6815;59.336;17.998;2023-06-01T05:41:42;1.80;;;0.93;;
13485;SDS011;6815;59.336;17.998;2023-06-01T05:44:08;3.33;;;0.93;;
13485;SDS011;6815;59.336;17.998;2023-06-01T05:46:33;3.53;;;0.97;;
13485;SDS011;6815;59.336;17.998;2023-06-01T05:48:59;3.53;;;0.97;;
13485;SDS011;6815;59.336;17.998;2023-06-01T05:51:24;2.03;;;0.90;;
13485;SDS011;6815;59.336;17.998;2023-06-01T05:53:50;1.50;;;0.80;;
13485;SDS011;6815;59.336;17.998;2023-06-01T05:56:17;1.77;;;0.93;;
13485;SDS011;6815;59.336;17.998;2023-06-01T05:58:43;3.33;;;0.90;;
13485;SDS011;6815;59.336;17.998;2023-06-01T06:01:09;3.87;;;0.87;;
13485;SDS011;6815;59.336;17.998;2023-06-01T06:03:35;1.27;;;0.80;;
13485;SDS011;6815;59.336;17.998;2023-06-01T06:06:01;1.80;;;0.90;;
13485;SDS011;6815;59.336;17.998;2023-06-01T06:08:27;4.47;;;0.90;;
13485;SDS011;6815;59.336;17.998;2023-06-01T06:10:54;2.07;;;0.80;;
13485;SDS011;6815;59.336;17.998;2023-06-01T06:13:19;3.80;;;0.93;;
13485;SDS011;6815;59.336;17.998;2023-06-01T06:15:45;2.00;;;0.97;;
13485;SDS011;6815;59.336;17.998;2023-06-01T06:18:10;3.70;;;0.97;;
13485;SDS011;6815;59.336;17.998;2023-06-01T06:20:36;2.00;;;0.90;;
13485;SDS011;6815;59.336;17.998;2023-06-01T06:23:01;3.07;;;1.20;;
13485;SDS011;6815;59.336;17.998;2023-06-01T06:25:27;1.73;;;0.87;;
13485;SDS011;6815;59.336;17.998;2023-06-01T06:27:52;2.40;;;0.87;;
13485;SDS011;6815;59.336;17.998;2023-06-01T06:30:17;4.27;;;1.00;;
13485;SDS011;6815;59.336;17.998;2023-06-01T06:32:43;2.63;;;1.10;;
13485;SDS011;6815;59.336;17.998;2023-06-01T06:35:08;2.57;;;0.97;;
13485;SDS011;6815;59.336;17.998;2023-06-01T06:37:38;6.53;;;1.20;;
13485;SDS011;6815;59.336;17.998;2023-06-01T06:40:07;3.60;;;1.03;;
13485;SDS011;6815;59.336;17.998;2023-06-01T06:42:33;3.00;;;0.97;;
13485;SDS011;6815;59.336;17.998;2023-06-01T06:44:58;4.10;;;0.90;;
13485;SDS011;6815;59.336;17.998;2023-06-01T06:47:23;4.40;;;1.23;;
13485;SDS011;6815;59.336;17.998;2023-06-01T06:49:50;4.00;;;0.97;;
13485;SDS011;6815;59.336;17.998;2023-06-01T06:52:16;3.53;;;0.80;;
13485;SDS011;6815;59.336;17.998;2023-06-01T06:54:42;2.40;;;0.80;;
13485;SDS011;6815;59.336;17.998;2023-06-01T06:57:08;2.53;;;0.90;;
13485;SDS011;6815;59.336;17.998;2023-06-01T06:59:34;3.25;;;1.00;;
13485;SDS011;6815;59.336;17.998;2023-06-01T07:02:00;3.50;;;0.90;;
13485;SDS011;6815;59.336;17.998;2023-06-01T07:04:27;2.07;;;0.63;;
13485;SDS011;6815;59.336;17.998;2023-06-01T07:06:52;2.47;;;0.70;;
13485;SDS011;6815;59.336;17.998;2023-06-01T07:09:18;2.10;;;1.10;;
13485;SDS011;6815;59.336;17.998;2023-06-01T07:11:44;2.87;;;0.90;;
13485;SDS011;6815;59.336;17.998;2023-06-01T07:14:10;5.33;;;1.10;;
13485;SDS011;6815;59.336;17.998;2023-06-01T07:16:36;3.33;;;1.00;;
13485;SDS011;6815;59.336;17.998;2023-06-01T07:19:01;2.70;;;1.20;;
13485;SDS011;6815;59.336;17.998;2023-06-01T07:21:26;1.47;;;1.17;;
13485;SDS011;6815;59.336;17.998;2023-06-01T07:23:52;2.67;;;1.30;;
13485;SDS011;6815;59.336;17.998;2023-06-01T07:26:18;2.43;;;1.10;;
13485;SDS011;6815;59.336;17.998;2023-06-01T07:28:43;1.73;;;1.00;;
13485;SDS011;6815;59.336;17.998;2023-06-01T07:31:09;2.53;;;1.40;;
13485;SDS011;6815;59.336;17.998;2023-06-01T07:33:34;4.90;;;1.40;;
13485;SDS011;6815;59.336;17.998;2023-06-01T07:36:01;2.50;;;1.20;;
13485;SDS011;6815;59.336;17.998;2023-06-01T07:38:27;4.43;;;1.47;;
13485;SDS011;6815;59.336;17.998;2023-06-01T07:40:53;5.67;;;1.33;;
13485;SDS011;6815;59.336;17.998;2023-06-01T07:43:18;6.50;;;1.30;;
13485;SDS011;6815;59.336;17.998;2023-06-01T07:45:43;2.20;;;1.10;;
13485;SDS011;6815;59.336;17.998;2023-06-01T07:48:09;3.07;;;0.97;;
13485;SDS011;6815;59.336;17.998;2023-06-01T07:50:35;1.13;;;1.00;;
13485;SDS011;6815;59.336;17.998;2023-06-01T07:53:01;3.30;;;1.37;;
13485;SDS011;6815;59.336;17.998;2023-06-01T07:55:27;2.43;;;1.00;;
13485;SDS011;6815;59.336;17.998;2023-06-01T07:57:53;4.57;;;1.30;;
13485;SDS011;6815;59.336;17.998;2023-06-01T08:00:19;2.50;;;1.20;;
13485;SDS011;6815;59.336;17.998;2023-06-01T08:02:44;3.43;;;1.00;;
13485;SDS011;6815;59.336;17.998;2023-06-01T08:05:11;2.87;;;1.37;;
13485;SDS011;6815;59.336;17.998;2023-06-01T08:07:36;2.40;;;1.17;;
13485;SDS011;6815;59.336;17.998;2023-06-01T08:10:04;3.83;;;1.83;;
13485;SDS011;6815;59.336;17.998;2023-06-01T08:12:30;3.90;;;1.90;;
13485;SDS011;6815;59.336;17.998;2023-06-01T08:14:56;4.57;;;1.10;;
13485;SDS011;6815;59.336;17.998;2023-06-01T08:17:23;1.90;;;1.10;;
13485;SDS011;6815;59.336;17.998;2023-06-01T08:19:49;2.97;;;1.00;;
13485;SDS011;6815;59.336;17.998;2023-06-01T08:22:14;2.77;;;1.47;;
13485;SDS011;6815;59.336;17.998;2023-06-01T08:24:41;6.20;;;1.90;;
13485;SDS011;6815;59.336;17.998;2023-06-01T08:27:20;4.90;;;1.40;;
13485;SDS011;6815;59.336;17.998;2023-06-01T08:29:47;2.87;;;1.10;;
13485;SDS011;6815;59.336;17.998;2023-06-01T08:32:13;1.80;;;1.03;;
13485;SDS011;6815;59.336;17.998;2023-06-01T08:34:39;1.40;;;1.07;;
13485;SDS011;6815;59.336;17.998;2023-06-01T08:37:04;3.60;;;1.77;;
13485;SDS011;6815;59.336;17.998;2023-06-01T08:39:30;4.47;;;1.23;;
13485;SDS011;6815;59.336;17.998;2023-06-01T08:44:46;2.13;;;1.10;;
13485;SDS011;6815;59.336;17.998;2023-06-01T08:47:12;3.77;;;1.20;;
13485;SDS011;6815;59.336;17.998;2023-06-01T08:49:38;1.60;;;0.87;;
13485;SDS011;6815;59.336;17.998;2023-06-01T08:52:13;3.53;;;1.70;;
13485;SDS011;6815;59.336;17.998;2023-06-01T08:54:39;4.30;;;0.90;;
13485;SDS011;6815;59.336;17.998;2023-06-01T08:57:05;7.47;;;1.47;;
13485;SDS011;6815;59.336;17.998;2023-06-01T08:59:35;3.20;;;1.00;;
13485;SDS011;6815;59.336;17.998;2023-06-01T09:02:01;6.93;;;2.10;;
13485;SDS011;6815;59.336;17.998;2023-06-01T09:04:27;4.60;;;1.40;;
13485;SDS011;6815;59.336;17.998;2023-06-01T09:06:55;7.77;;;2.23;;
13485;SDS011;6815;59.336;17.998;2023-06-01T09:09:21;7.30;;;1.50;;
13485;SDS011;6815;59.336;17.998;2023-06-01T09:11:46;3.63;;;1.50;;
13485;SDS011;6815;59.336;17.998;2023-06-01T09:14:19;2.80;;;1.20;;
13485;SDS011;6815;59.336;17.998;2023-06-01T09:16:46;2.53;;;1.20;;
13485;SDS011;6815;59.336;17.998;2023-06-01T09:19:13;2.33;;;1.23;;
13485;SDS011;6815;59.336;17.998;2023-06-01T09:21:39;3.50;;;1.50;;
13485;SDS011;6815;59.336;17.998;2023-06-01T09:24:20;4.60;;;1.63;;
13485;SDS011;6815;59.336;17.998;2023-06-01T09:26:49;5.70;;;1.70;;
13485;SDS011;6815;59.336;17.998;2023-06-01T09:29:15;4.23;;;1.10;;
13485;SDS011;6815;59.336;17.998;2023-06-01T09:31:42;2.63;;;1.40;;
13485;SDS011;6815;59.336;17.998;2023-06-01T09:34:16;2.70;;;1.20;;
13485;SDS011;6815;59.336;17.998;2023-06-01T09:36:54;4.23;;;1.40;;
13485;SDS011;6815;59.336;17.998;2023-06-01T09:39:21;4.40;;;1.20;;
13485;SDS011;6815;59.336;17.998;2023-06-01T09:46:52;4.57;;;1.60;;
13485;SDS011;6815;59.336;17.998;2023-06-01T09:49:22;4.77;;;1.97;;
13485;SDS011;6815;59.336;17.998;2023-06-01T09:51:50;5.63;;;1.60;;
13485;SDS011;6815;59.336;17.998;2023-06-01T09:54:26;2.53;;;1.10;;
13485;SDS011;6815;59.336;17.998;2023-06-01T09:56:53;1.87;;;1.10;;
13485;SDS011;6815;59.336;17.998;2023-06-01T09:59:20;2.83;;;1.20;;
13485;SDS011;6815;59.336;17.998;2023-06-01T10:01:53;3.10;;;1.23;;
13485;SDS011;6815;59.336;17.998;2023-06-01T10:04:21;2.50;;;0.97;;
13485;SDS011;6815;59.336;17.998;2023-06-01T10:06:51;3.37;;;1.17;;
13485;SDS011;6815;59.336;17.998;2023-06-01T10:09:21;3.97;;;1.03;;
13485;SDS011;6815;59.336;17.998;2023-06-01T10:11:47;2.80;;;1.33;;
13485;SDS011;6815;59.336;17.998;2023-06-01T10:14:17;1.43;;;1.10;;
13485;SDS011;6815;59.336;17.998;2023-06-01T10:16:43;2.63;;;1.10;;
13485;SDS011;6815;59.336;17.998;2023-06-01T10:19:09;1.07;;;0.90;;
13485;SDS011;6815;59.336;17.998;2023-06-01T10:21:36;1.90;;;0.80;;
13485;SDS011;6815;59.336;17.998;2023-06-01T10:24:02;2.47;;;1.10;;
13485;SDS011;6815;59.336;17.998;2023-06-01T10:26:29;2.00;;;1.10;;
13485;SDS011;6815;59.336;17.998;2023-06-01T10:28:58;3.27;;;1.20;;
13485;SDS011;6815;59.336;17.998;2023-06-01T10:34:02;4.17;;;1.10;;
13485;SDS011;6815;59.336;17.998;2023-06-01T10:39:25;7.23;;;1.57;;
13485;SDS011;6815;59.336;17.998;2023-06-01T10:41:51;2.23;;;1.20;;
13485;SDS011;6815;59.336;17.998;2023-06-01T10:47:50;3.30;;;1.10;;
13485;SDS011;6815;59.336;17.998;2023-06-01T10:57:37;2.50;;;0.90;;
13485;SDS011;6815;59.336;17.998;2023-06-01T11:03:02;3.70;;;1.40;;
13485;SDS011;6815;59.336;17.998;2023-06-01T11:21:16;1.30;;;0.80;;
13485;SDS011;6815;59.336;17.998;2023-06-01T11:23:43;4.40;;;1.43;;
13485;SDS011;6815;59.336;17.998;2023-06-01T11:26:10;3.50;;;0.93;;
13485;SDS011;6815;59.336;17.998;2023-06-01T11:28:39;3.37;;;1.00;;
13485;SDS011;6815;59.336;17.998;2023-06-01T11:31:08;3.73;;;1.00;;
13485;SDS011;6815;59.336;17.998;2023-06-01T11:33:35;3.60;;;1.03;;
13485;SDS011;6815;59.336;17.998;2023-06-01T11:36:03;4.27;;;1.10;;
13485;SDS011;6815;59.336;17.998;2023-06-01T11:40:59;4.33;;;1.00;;
13485;SDS011;6815;59.336;17.998;2023-06-01T11:43:31;3.23;;;0.90;;
13485;SDS011;6815;59.336;17.998;2023-06-01T11:46:01;2.03;;;1.13;;
13485;SDS011;6815;59.336;17.998;2023-06-01T11:48:32;1.03;;;0.77;;
13485;SDS011;6815;59.336;17.998;2023-06-01T11:50:59;1.13;;;0.87;;
13485;SDS011;6815;59.336;17.998;2023-06-01T11:53:25;2.90;;;1.00;;
13485;SDS011;6815;59.336;17.998;2023-06-01T11:55:54;1.93;;;1.10;;
13485;SDS011;6815;59.336;17.998;2023-06-01T11:58:29;2.10;;;1.10;;
13485;SDS011;6815;59.336;17.998;2023-06-01T12:00:57;1.63;;;1.00;;
13485;SDS011;6815;59.336;17.998;2023-06-01T12:03:23;2.30;;;0.80;;
13485;SDS011;6815;59.336;17.998;2023-06-01T12:05:52;2.37;;;0.97;;
13485;SDS011;6815;59.336;17.998;2023-06-01T12:08:18;1.40;;;0.80;;
13485;SDS011;6815;59.336;17.998;2023-06-01T12:10:46;3.20;;;1.00;;
13485;SDS011;6815;59.336;17.998;2023-06-01T12:13:17;4.37;;;1.00;;
13485;SDS011;6815;59.336;17.998;2023-06-01T12:15:44;2.30;;;1.00;;
13485;SDS011;6815;59.336;17.998;2023-06-01T12:18:10;1.27;;;0.97;;
13485;SDS011;6815;59.336;17.998;2023-06-01T12:23:12;1.43;;;1.03;;
13485;SDS011;6815;59.336;17.998;2023-06-01T12:28:21;3.50;;;0.90;;
13485;SDS011;6815;59.336;17.998;2023-06-01T12:30:48;3.87;;;0.80;;
13485;SDS011;6815;59.336;17.998;2023-06-01T12:33:33;4.17;;;1.17;;
13485;SDS011;6815;59.336;17.998;2023-06-01T12:36:00;3.10;;;1.10;;
13485;SDS011;6815;59.336;17.998;2023-06-01T12:38:26;5.90;;;0.80;;
13485;SDS011;6815;59.336;17.998;2023-06-01T12:43:34;0.70;;;0.70;;
13485;SDS011;6815;59.336;17.998;2023-06-01T12:46:00;2.37;;;0.90;;
13485;SDS011;6815;59.336;17.998;2023-06-01T12:48:29;3.93;;;1.00;;
13485;SDS011;6815;59.336;17.998;2023-06-01T12:51:01;2.03;;;1.10;;
13485;SDS011;6815;59.336;17.998;2023-06-01T12:53:28;1.60;;;0.83;;
13485;SDS011;6815;59.336;17.998;2023-06-01T12:55:54;1.90;;;1.00;;
13485;SDS011;6815;59.336;17.998;2023-06-01T12:58:22;1.47;;;0.70;;
13485;SDS011;6815;59.336;17.998;2023-06-01T13:00:47;4.47;;;0.90;;
13485;SDS011;6815;59.336;17.998;2023-06-01T13:03:13;1.67;;;0.83;;
13485;SDS011;6815;59.336;17.998;2023-06-01T13:05:42;4.33;;;1.50;;
13485;SDS011;6815;59.336;17.998;2023-06-01T13:08:11;2.43;;;1.00;;
13485;SDS011;6815;59.336;17.998;2023-06-01T13:10:37;1.60;;;0.90;;
13485;SDS011;6815;59.336;17.998;2023-06-01T13:13:03;4.60;;;1.17;;
13485;SDS011;6815;59.336;17.998;2023-06-01T13:15:28;3.53;;;1.03;;
13485;SDS011;6815;59.336;17.998;2023-06-01T13:17:54;3.67;;;1.07;;
13485;SDS011;6815;59.336;17.998;2023-06-01T13:20:21;1.83;;;0.90;;
13485;SDS011;6815;59.336;17.998;2023-06-01T13:22:47;1.73;;;0.80;;
13485;SDS011;6815;59.336;17.998;2023-06-01T13:25:12;3.83;;;0.90;;
13485;SDS011;6815;59.336;17.998;2023-06-01T13:27:39;1.50;;;0.80;;
13485;SDS011;6815;59.336;17.998;2023-06-01T13:30:04;2.90;;;0.90;;
13485;SDS011;6815;59.336;17.998;2023-06-01T13:32:31;4.87;;;0.73;;
13485;SDS011;6815;59.336;17.998;2023-06-01T13:34:56;1.17;;;0.63;;
13485;SDS011;6815;59.336;17.998;2023-06-01T13:37:22;2.37;;;0.87;;
13485;SDS011;6815;59.336;17.998;2023-06-01T13:39:47;1.20;;;0.70;;
13485;SDS011;6815;59.336;17.998;2023-06-01T13:42:13;2.10;;;1.00;;
13485;SDS011;6815;59.336;17.998;2023-06-01T13:44:38;1.57;;;0.80;;
13485;SDS011;6815;59.336;17.998;2023-06-01T13:47:04;3.20;;;1.10;;
13485;SDS011;6815;59.336;17.998;2023-06-01T13:49:29;1.90;;;0.70;;
13485;SDS011;6815;59.336;17.998;2023-06-01T13:51:55;2.30;;;1.00;;
13485;SDS011;6815;59.336;17.998;2023-06-01T13:54:21;1.80;;;1.00;;
13485;SDS011;6815;59.336;17.998;2023-06-01T13:56:47;3.70;;;1.23;;
13485;SDS011;6815;59.336;17.998;2023-06-01T13:59:12;2.93;;;0.90;;
13485;SDS011;6815;59.336;17.998;2023-06-01T14:01:37;2.60;;;1.07;;
13485;SDS011;6815;59.336;17.998;2023-06-01T14:04:03;1.10;;;0.70;;
13485;SDS011;6815;59.336;17.998;2023-06-01T14:06:28;1.38;;;0.70;;
13485;SDS011;6815;59.336;17.998;2023-06-01T14:08:54;0.88;;;0.70;;
13485;SDS011;6815;59.336;17.998;2023-06-01T14:11:19;2.00;;;0.93;;
13485;SDS011;6815;59.336;17.998;2023-06-01T14:13:45;2.13;;;1.07;;
13485;SDS011;6815;59.336;17.998;2023-06-01T14:16:11;2.03;;;0.80;;
13485;SDS011;6815;59.336;17.998;2023-06-01T14:18:37;2.50;;;1.03;;
13485;SDS011;6815;59.336;17.998;2023-06-01T14:21:02;1.97;;;0.80;;
13485;SDS011;6815;59.336;17.998;2023-06-01T14:23:28;1.57;;;0.80;;
13485;SDS011;6815;59.336;17.998;2023-06-01T14:25:54;2.33;;;0.83;;
13485;SDS011;6815;59.336;17.998;2023-06-01T14:28:20;4.00;;;1.13;;
13485;SDS011;6815;59.336;17.998;2023-06-01T14:30:45;2.80;;;0.73;;
13485;SDS011;6815;59.336;17.998;2023-06-01T14:33:11;2.80;;;0.80;;
13485;SDS011;6815;59.336;17.998;2023-06-01T14:35:37;2.30;;;0.77;;
13485;SDS011;6815;59.336;17.998;2023-06-01T14:38:02;2.83;;;0.80;;
13485;SDS011;6815;59.336;17.998;2023-06-01T14:40:28;4.40;;;0.77;;
13485;SDS011;6815;59.336;17.998;2023-06-01T14:42:53;2.47;;;0.90;;
13485;SDS011;6815;59.336;17.998;2023-06-01T14:45:19;2.20;;;1.00;;
13485;SDS011;6815;59.336;17.998;2023-06-01T14:47:46;1.17;;;0.70;;
13485;SDS011;6815;59.336;17.998;2023-06-01T14:50:12;2.30;;;0.90;;
13485;SDS011;6815;59.336;17.998;2023-06-01T14:52:38;1.20;;;0.80;;
13485;SDS011;6815;59.336;17.998;2023-06-01T14:55:04;1.17;;;0.93;;
13485;SDS011;6815;59.336;17.998;2023-06-01T14:57:29;1.83;;;0.80;;
13485;SDS011;6815;59.336;17.998;2023-06-01T14:59:55;2.07;;;0.90;;
13485;SDS011;6815;59.336;17.998;2023-06-01T15:02:20;2.20;;;0.90;;
13485;SDS011;6815;59.336;17.998;2023-06-01T15:04:45;1.57;;;0.80;;
13485;SDS011;6815;59.336;17.998;2023-06-01T15:07:11;1.85;;;0.85;;
13485;SDS011;6815;59.336;17.998;2023-06-01T15:09:36;2.30;;;0.77;;
13485;SDS011;6815;59.336;17.998;2023-06-01T15:12:02;2.00;;;1.13;;
13485;SDS011;6815;59.336;17.998;2023-06-01T15:14:28;1.47;;;1.00;;
13485;SDS011;6815;59.336;17.998;2023-06-01T15:16:53;3.60;;;1.23;;
13485;SDS011;6815;59.336;17.998;2023-06-01T15:19:18;2.47;;;1.03;;
13485;SDS011;6815;59.336;17.998;2023-06-01T15:21:44;4.47;;;1.10;;
13485;SDS011;6815;59.336;17.998;2023-06-01T15:24:10;1.50;;;0.97;;
13485;SDS011;6815;59.336;17.998;2023-06-01T15:26:35;1.63;;;1.00;;
13485;SDS011;6815;59.336;17.998;2023-06-01T15:29:01;1.37;;;1.00;;
13485;SDS011;6815;59.336;17.998;2023-06-01T15:31:26;3.23;;;1.50;;
13485;SDS011;6815;59.336;17.998;2023-06-01T15:33:52;4.03;;;1.07;;
13485;SDS011;6815;59.336;17.998;2023-06-01T15:36:17;4.40;;;1.13;;
13485;SDS011;6815;59.336;17.998;2023-06-01T15:38:43;1.97;;;1.10;;
13485;SDS011;6815;59.336;17.998;2023-06-01T15:41:08;3.10;;;0.90;;
13485;SDS011;6815;59.336;17.998;2023-06-01T15:43:34;1.80;;;0.97;;
13485;SDS011;6815;59.336;17.998;2023-06-01T15:46:03;2.87;;;0.90;;
13485;SDS011;6815;59.336;17.998;2023-06-01T15:48:29;2.30;;;1.10;;
13485;SDS011;6815;59.336;17.998;2023-06-01T15:50:56;2.93;;;1.10;;
13485;SDS011;6815;59.336;17.998;2023-06-01T15:53:21;7.77;;;1.50;;